sensor_id;sensor_type;location;lat;lon;timestamp;P1;durP1;ratioP1;P2;durP2;ratioP2
36241;SDS011;22283;42.748;12.732;2024-01-27T00:04:47;76.20;;;52.47;;
36241;SDS011;22283;42.748;12.732;2024-01-27T00:09:48;72.20;;;53.35;;
36241;SDS011;22283;42.748;12.732;2024-01-27T00:14:49;81.33;;;57.03;;
36241;SDS011;22283;42.748;12.732;2024-01-27T00:19:50;84.77;;;60.30;;
36241;SDS011;22283;42.748;12.732;2024-01-27T00:24:51;74.28;;;52.63;;
36241;SDS011;22283;42.748;12.732;2024-01-27T00:29:52;67.50;;;47.57;;
36241;SDS011;22283;42.748;12.732;2024-01-27T00:34:53;69.97;;;45.23;;
36241;SDS011;22283;42.748;12.732;2024-01-27T00:39:54;72.70;;;49.63;;
36241;SDS011;22283;42.748;12.732;2024-01-27T00:44:54;72.20;;;49.53;;
36241;SDS011;22283;42.748;12.732;2024-01-27T00:49:55;71.10;;;48.90;;
36241;SDS011;22283;42.748;12.732;2024-01-27T00:54:56;66.37;;;43.70;;
36241;SDS011;22283;42.748;12.732;2024-01-27T00:59:56;66.17;;;45.87;;
36241;SDS011;22283;42.748;12.732;2024-01-27T01:04:57;74.33;;;47.13;;
36241;SDS011;22283;42.748;12.732;2024-01-27T01:09:58;71.37;;;47.53;;
36241;SDS011;22283;42.748;12.732;2024-01-27T01:14:59;68.80;;;47.50;;
36241;SDS011;22283;42.748;12.732;2024-01-27T01:19:59;75.07;;;51.07;;
36241;SDS011;22283;42.748;12.732;2024-01-27T01:25:00;75.97;;;52.03;;
36241;SDS011;22283;42.748;12.732;2024-01-27T01:30:00;78.43;;;52.77;;
36241;SDS011;22283;42.748;12.732;2024-01-27T01:35:01;80.33;;;55.00;;
36241;SDS011;22283;42.748;12.732;2024-01-27T01:40:02;87.67;;;54.97;;
36241;SDS011;22283;42.748;12.732;2024-01-27T01:45:03;75.33;;;52.93;;
36241;SDS011;22283;42.748;12.732;2024-01-27T01:50:05;71.97;;;53.83;;
36241;SDS011;22283;42.748;12.732;2024-01-27T01:55:06;83.47;;;58.10;;
36241;SDS011;22283;42.748;12.732;2024-01-27T02:00:07;94.13;;;64.07;;
36241;SDS011;22283;42.748;12.732;2024-01-27T02:05:12;75.40;;;56.42;;
36241;SDS011;22283;42.748;12.732;2024-01-27T02:10:14;84.57;;;60.60;;
36241;SDS011;22283;42.748;12.732;2024-01-27T02:15:18;84.18;;;60.33;;
36241;SDS011;22283;42.748;12.732;2024-01-27T02:20:19;78.53;;;56.73;;
36241;SDS011;22283;42.748;12.732;2024-01-27T02:25:19;79.23;;;59.47;;
36241;SDS011;22283;42.748;12.732;2024-01-27T02:30:20;84.30;;;59.13;;
36241;SDS011;22283;42.748;12.732;2024-01-27T02:35:21;74.60;;;53.53;;
36241;SDS011;22283;42.748;12.732;2024-01-27T02:40:21;86.40;;;57.00;;
36241;SDS011;22283;42.748;12.732;2024-01-27T02:45:22;91.90;;;62.47;;
36241;SDS011;22283;42.748;12.732;2024-01-27T02:50:23;90.93;;;60.27;;
36241;SDS011;22283;42.748;12.732;2024-01-27T02:55:23;76.17;;;55.63;;
36241;SDS011;22283;42.748;12.732;2024-01-27T03:00:24;82.60;;;60.97;;
36241;SDS011;22283;42.748;12.732;2024-01-27T03:05:24;87.37;;;64.07;;
36241;SDS011;22283;42.748;12.732;2024-01-27T03:10:25;89.40;;;62.37;;
36241;SDS011;22283;42.748;12.732;2024-01-27T03:15:26;84.00;;;59.43;;
36241;SDS011;22283;42.748;12.732;2024-01-27T03:20:26;84.07;;;61.70;;
36241;SDS011;22283;42.748;12.732;2024-01-27T03:25:28;84.05;;;59.40;;
36241;SDS011;22283;42.748;12.732;2024-01-27T03:30:28;77.20;;;55.70;;
36241;SDS011;22283;42.748;12.732;2024-01-27T03:35:29;82.07;;;55.70;;
36241;SDS011;22283;42.748;12.732;2024-01-27T03:40:30;89.33;;;64.93;;
36241;SDS011;22283;42.748;12.732;2024-01-27T03:45:30;88.27;;;60.13;;
36241;SDS011;22283;42.748;12.732;2024-01-27T03:50:31;85.67;;;62.47;;
36241;SDS011;22283;42.748;12.732;2024-01-27T03:55:31;91.37;;;63.10;;
36241;SDS011;22283;42.748;12.732;2024-01-27T04:00:32;90.10;;;63.63;;
36241;SDS011;22283;42.748;12.732;2024-01-27T04:05:33;95.50;;;64.70;;
36241;SDS011;22283;42.748;12.732;2024-01-27T04:10:34;92.97;;;62.27;;
36241;SDS011;22283;42.748;12.732;2024-01-27T04:15:34;86.00;;;60.60;;
36241;SDS011;22283;42.748;12.732;2024-01-27T04:20:38;84.70;;;58.90;;
36241;SDS011;22283;42.748;12.732;2024-01-27T04:25:39;87.97;;;62.10;;
36241;SDS011;22283;42.748;12.732;2024-01-27T04:30:40;80.67;;;58.93;;
36241;SDS011;22283;42.748;12.732;2024-01-27T04:35:40;95.93;;;63.83;;
36241;SDS011;22283;42.748;12.732;2024-01-27T04:40:41;96.37;;;67.10;;
36241;SDS011;22283;42.748;12.732;2024-01-27T04:45:42;87.03;;;65.47;;
36241;SDS011;22283;42.748;12.732;2024-01-27T04:50:43;82.63;;;61.17;;
36241;SDS011;22283;42.748;12.732;2024-01-27T04:55:44;93.33;;;63.13;;
36241;SDS011;22283;42.748;12.732;2024-01-27T05:00:44;89.43;;;65.27;;
36241;SDS011;22283;42.748;12.732;2024-01-27T05:05:45;90.00;;;65.20;;
36241;SDS011;22283;42.748;12.732;2024-01-27T05:10:45;92.27;;;66.80;;
36241;SDS011;22283;42.748;12.732;2024-01-27T05:15:46;88.57;;;64.70;;
36241;SDS011;22283;42.748;12.732;2024-01-27T05:20:47;93.13;;;68.27;;
36241;SDS011;22283;42.748;12.732;2024-01-27T05:25:47;94.43;;;67.40;;
36241;SDS011;22283;42.748;12.732;2024-01-27T05:30:48;93.43;;;70.87;;
36241;SDS011;22283;42.748;12.732;2024-01-27T05:35:48;109.57;;;71.67;;
36241;SDS011;22283;42.748;12.732;2024-01-27T05:40:49;104.87;;;69.30;;
36241;SDS011;22283;42.748;12.732;2024-01-27T05:45:51;108.00;;;67.18;;
36241;SDS011;22283;42.748;12.732;2024-01-27T05:50:55;99.13;;;69.57;;
36241;SDS011;22283;42.748;12.732;2024-01-27T05:55:56;98.43;;;71.03;;
36241;SDS011;22283;42.748;12.732;2024-01-27T06:00:57;97.83;;;68.60;;
36241;SDS011;22283;42.748;12.732;2024-01-27T06:05:57;107.93;;;71.73;;
36241;SDS011;22283;42.748;12.732;2024-01-27T06:10:58;93.37;;;65.63;;
36241;SDS011;22283;42.748;12.732;2024-01-27T06:15:59;98.47;;;70.10;;
36241;SDS011;22283;42.748;12.732;2024-01-27T06:20:59;92.07;;;60.60;;
36241;SDS011;22283;42.748;12.732;2024-01-27T06:26:04;87.47;;;60.53;;
36241;SDS011;22283;42.748;12.732;2024-01-27T06:31:08;89.78;;;55.30;;
36241;SDS011;22283;42.748;12.732;2024-01-27T06:36:09;85.20;;;54.03;;
36241;SDS011;22283;42.748;12.732;2024-01-27T06:41:09;81.53;;;53.07;;
36241;SDS011;22283;42.748;12.732;2024-01-27T06:46:10;81.37;;;52.93;;
36241;SDS011;22283;42.748;12.732;2024-01-27T06:51:11;107.50;;;62.20;;
36241;SDS011;22283;42.748;12.732;2024-01-27T06:56:12;88.00;;;53.90;;
36241;SDS011;22283;42.748;12.732;2024-01-27T07:01:12;100.60;;;57.67;;
36241;SDS011;22283;42.748;12.732;2024-01-27T07:06:13;92.57;;;59.83;;
36241;SDS011;22283;42.748;12.732;2024-01-27T07:11:14;105.50;;;68.70;;
36241;SDS011;22283;42.748;12.732;2024-01-27T07:16:14;97.87;;;65.37;;
36241;SDS011;22283;42.748;12.732;2024-01-27T07:21:15;95.97;;;63.53;;
36241;SDS011;22283;42.748;12.732;2024-01-27T07:26:19;87.47;;;59.90;;
36241;SDS011;22283;42.748;12.732;2024-01-27T07:31:20;106.73;;;59.30;;
36241;SDS011;22283;42.748;12.732;2024-01-27T07:36:23;81.85;;;48.72;;
36241;SDS011;22283;42.748;12.732;2024-01-27T07:41:23;76.53;;;47.67;;
36241;SDS011;22283;42.748;12.732;2024-01-27T07:46:24;67.03;;;45.43;;
36241;SDS011;22283;42.748;12.732;2024-01-27T07:51:25;55.43;;;36.87;;
36241;SDS011;22283;42.748;12.732;2024-01-27T07:56:26;58.83;;;36.40;;
36241;SDS011;22283;42.748;12.732;2024-01-27T08:01:27;64.03;;;38.13;;
36241;SDS011;22283;42.748;12.732;2024-01-27T08:06:29;75.10;;;51.67;;
36241;SDS011;22283;42.748;12.732;2024-01-27T08:11:30;80.85;;;51.00;;
36241;SDS011;22283;42.748;12.732;2024-01-27T08:16:31;87.20;;;55.67;;
36241;SDS011;22283;42.748;12.732;2024-01-27T08:21:31;92.93;;;62.53;;
36241;SDS011;22283;42.748;12.732;2024-01-27T08:26:35;66.17;;;38.83;;
36241;SDS011;22283;42.748;12.732;2024-01-27T08:31:35;42.50;;;28.05;;
36241;SDS011;22283;42.748;12.732;2024-01-27T08:36:38;42.03;;;29.55;;
36241;SDS011;22283;42.748;12.732;2024-01-27T08:41:39;70.70;;;49.07;;
36241;SDS011;22283;42.748;12.732;2024-01-27T08:46:39;64.40;;;47.83;;
36241;SDS011;22283;42.748;12.732;2024-01-27T08:51:40;63.87;;;48.07;;
36241;SDS011;22283;42.748;12.732;2024-01-27T08:56:41;64.60;;;47.33;;
36241;SDS011;22283;42.748;12.732;2024-01-27T09:01:41;72.17;;;49.77;;
36241;SDS011;22283;42.748;12.732;2024-01-27T09:06:42;63.90;;;47.70;;
36241;SDS011;22283;42.748;12.732;2024-01-27T09:11:44;62.63;;;47.65;;
36241;SDS011;22283;42.748;12.732;2024-01-27T09:16:46;72.00;;;46.90;;
36241;SDS011;22283;42.748;12.732;2024-01-27T09:21:47;66.13;;;48.90;;
36241;SDS011;22283;42.748;12.732;2024-01-27T09:26:48;61.07;;;47.50;;
36241;SDS011;22283;42.748;12.732;2024-01-27T09:31:49;76.23;;;51.90;;
36241;SDS011;22283;42.748;12.732;2024-01-27T09:36:49;71.53;;;49.10;;
36241;SDS011;22283;42.748;12.732;2024-01-27T09:41:50;57.17;;;42.23;;
36241;SDS011;22283;42.748;12.732;2024-01-27T09:46:51;63.20;;;44.42;;
36241;SDS011;22283;42.748;12.732;2024-01-27T09:51:53;48.92;;;35.28;;
36241;SDS011;22283;42.748;12.732;2024-01-27T09:56:55;38.95;;;30.13;;
36241;SDS011;22283;42.748;12.732;2024-01-27T10:01:57;36.85;;;25.15;;
36241;SDS011;22283;42.748;12.732;2024-01-27T10:06:59;36.53;;;27.70;;
36241;SDS011;22283;42.748;12.732;2024-01-27T10:12:00;42.00;;;28.30;;
36241;SDS011;22283;42.748;12.732;2024-01-27T10:17:01;42.80;;;30.08;;
36241;SDS011;22283;42.748;12.732;2024-01-27T10:22:02;41.00;;;27.13;;
36241;SDS011;22283;42.748;12.732;2024-01-27T10:27:04;39.80;;;27.57;;
36241;SDS011;22283;42.748;12.732;2024-01-27T10:32:07;45.45;;;31.27;;
36241;SDS011;22283;42.748;12.732;2024-01-27T10:37:11;41.47;;;26.00;;
36241;SDS011;22283;42.748;12.732;2024-01-27T10:42:13;43.88;;;27.17;;
36241;SDS011;22283;42.748;12.732;2024-01-27T10:47:14;40.17;;;25.92;;
36241;SDS011;22283;42.748;12.732;2024-01-27T10:52:20;40.33;;;28.15;;
36241;SDS011;22283;42.748;12.732;2024-01-27T10:57:23;37.80;;;28.58;;
36241;SDS011;22283;42.748;12.732;2024-01-27T11:02:27;37.83;;;28.63;;
36241;SDS011;22283;42.748;12.732;2024-01-27T11:07:32;37.88;;;28.63;;
36241;SDS011;22283;42.748;12.732;2024-01-27T11:12:34;33.45;;;24.92;;
36241;SDS011;22283;42.748;12.732;2024-01-27T11:17:42;38.33;;;28.77;;
36241;SDS011;22283;42.748;12.732;2024-01-27T11:22:43;49.22;;;30.67;;
36241;SDS011;22283;42.748;12.732;2024-01-27T11:27:44;35.20;;;27.87;;
36241;SDS011;22283;42.748;12.732;2024-01-27T11:32:48;46.85;;;29.80;;
36241;SDS011;22283;42.748;12.732;2024-01-27T11:37:49;38.70;;;29.38;;
36241;SDS011;22283;42.748;12.732;2024-01-27T11:42:54;39.43;;;30.13;;
36241;SDS011;22283;42.748;12.732;2024-01-27T11:47:58;35.40;;;28.05;;
36241;SDS011;22283;42.748;12.732;2024-01-27T11:53:00;35.90;;;25.42;;
36241;SDS011;22283;42.748;12.732;2024-01-27T11:58:01;37.63;;;24.73;;
36241;SDS011;22283;42.748;12.732;2024-01-27T12:03:02;37.70;;;26.43;;
36241;SDS011;22283;42.748;12.732;2024-01-27T12:08:02;37.40;;;25.90;;
36241;SDS011;22283;42.748;12.732;2024-01-27T12:13:03;41.50;;;25.40;;
36241;SDS011;22283;42.748;12.732;2024-01-27T12:18:04;33.57;;;24.60;;
36241;SDS011;22283;42.748;12.732;2024-01-27T12:23:06;39.33;;;24.77;;
36241;SDS011;22283;42.748;12.732;2024-01-27T12:28:10;41.50;;;23.95;;
36241;SDS011;22283;42.748;12.732;2024-01-27T12:33:12;36.25;;;24.75;;
36241;SDS011;22283;42.748;12.732;2024-01-27T12:38:13;35.55;;;25.48;;
36241;SDS011;22283;42.748;12.732;2024-01-27T12:43:13;31.63;;;23.03;;
36241;SDS011;22283;42.748;12.732;2024-01-27T12:48:15;33.22;;;24.60;;
36241;SDS011;22283;42.748;12.732;2024-01-27T12:53:16;34.55;;;24.98;;
36241;SDS011;22283;42.748;12.732;2024-01-27T12:58:17;42.28;;;27.25;;
36241;SDS011;22283;42.748;12.732;2024-01-27T13:03:18;39.23;;;28.07;;
36241;SDS011;22283;42.748;12.732;2024-01-27T13:08:19;42.60;;;26.00;;
36241;SDS011;22283;42.748;12.732;2024-01-27T13:13:20;36.15;;;25.60;;
36241;SDS011;22283;42.748;12.732;2024-01-27T13:18:20;38.57;;;26.60;;
36241;SDS011;22283;42.748;12.732;2024-01-27T13:23:21;37.17;;;25.03;;
36241;SDS011;22283;42.748;12.732;2024-01-27T13:28:22;47.35;;;33.38;;
36241;SDS011;22283;42.748;12.732;2024-01-27T13:33:23;44.43;;;29.93;;
36241;SDS011;22283;42.748;12.732;2024-01-27T13:38:24;47.77;;;29.80;;
36241;SDS011;22283;42.748;12.732;2024-01-27T13:43:26;31.85;;;21.85;;
36241;SDS011;22283;42.748;12.732;2024-01-27T13:48:26;32.23;;;23.93;;
36241;SDS011;22283;42.748;12.732;2024-01-27T13:53:27;39.80;;;23.23;;
36241;SDS011;22283;42.748;12.732;2024-01-27T13:58:28;28.42;;;19.92;;
36241;SDS011;22283;42.748;12.732;2024-01-27T14:03:29;26.08;;;18.27;;
36241;SDS011;22283;42.748;12.732;2024-01-27T14:08:30;22.33;;;14.33;;
36241;SDS011;22283;42.748;12.732;2024-01-27T14:13:31;18.80;;;13.73;;
36241;SDS011;22283;42.748;12.732;2024-01-27T14:18:31;21.80;;;14.77;;
36241;SDS011;22283;42.748;12.732;2024-01-27T14:23:32;19.63;;;13.10;;
36241;SDS011;22283;42.748;12.732;2024-01-27T14:28:32;21.97;;;14.43;;
36241;SDS011;22283;42.748;12.732;2024-01-27T14:33:34;21.13;;;13.63;;
36241;SDS011;22283;42.748;12.732;2024-01-27T14:38:34;18.08;;;12.40;;
36241;SDS011;22283;42.748;12.732;2024-01-27T14:43:35;22.80;;;13.80;;
36241;SDS011;22283;42.748;12.732;2024-01-27T14:48:36;24.53;;;14.50;;
36241;SDS011;22283;42.748;12.732;2024-01-27T14:53:36;21.97;;;15.33;;
36241;SDS011;22283;42.748;12.732;2024-01-27T14:58:38;25.57;;;15.87;;
36241;SDS011;22283;42.748;12.732;2024-01-27T15:03:39;31.20;;;19.95;;
36241;SDS011;22283;42.748;12.732;2024-01-27T15:08:41;30.02;;;20.05;;
36241;SDS011;22283;42.748;12.732;2024-01-27T15:13:42;38.37;;;17.13;;
36241;SDS011;22283;42.748;12.732;2024-01-27T15:18:42;37.57;;;18.00;;
36241;SDS011;22283;42.748;12.732;2024-01-27T15:28:45;29.95;;;16.88;;
36241;SDS011;22283;42.748;12.732;2024-01-27T15:33:45;34.97;;;17.03;;
36241;SDS011;22283;42.748;12.732;2024-01-27T15:38:46;28.23;;;16.27;;
36241;SDS011;22283;42.748;12.732;2024-01-27T15:43:47;35.93;;;16.40;;
36241;SDS011;22283;42.748;12.732;2024-01-27T15:48:49;40.17;;;24.92;;
36241;SDS011;22283;42.748;12.732;2024-01-27T15:53:53;46.47;;;26.63;;
36241;SDS011;22283;42.748;12.732;2024-01-27T15:58:54;44.30;;;27.23;;
36241;SDS011;22283;42.748;12.732;2024-01-27T16:03:54;44.07;;;27.53;;
36241;SDS011;22283;42.748;12.732;2024-01-27T16:08:55;38.30;;;26.80;;
36241;SDS011;22283;42.748;12.732;2024-01-27T16:13:55;38.20;;;25.17;;
36241;SDS011;22283;42.748;12.732;2024-01-27T16:18:56;36.13;;;21.90;;
36241;SDS011;22283;42.748;12.732;2024-01-27T16:23:56;39.57;;;23.70;;
36241;SDS011;22283;42.748;12.732;2024-01-27T16:28:57;35.40;;;21.57;;
36241;SDS011;22283;42.748;12.732;2024-01-27T16:33:58;38.90;;;22.73;;
36241;SDS011;22283;42.748;12.732;2024-01-27T16:38:59;33.83;;;23.33;;
36241;SDS011;22283;42.748;12.732;2024-01-27T16:43:59;34.13;;;20.87;;
36241;SDS011;22283;42.748;12.732;2024-01-27T16:49:00;33.70;;;21.80;;
36241;SDS011;22283;42.748;12.732;2024-01-27T16:54:01;36.77;;;24.67;;
36241;SDS011;22283;42.748;12.732;2024-01-27T16:59:02;35.90;;;26.67;;
36241;SDS011;22283;42.748;12.732;2024-01-27T17:04:03;40.17;;;28.00;;
36241;SDS011;22283;42.748;12.732;2024-01-27T17:09:05;34.90;;;24.67;;
36241;SDS011;22283;42.748;12.732;2024-01-27T17:14:07;37.92;;;25.02;;
36241;SDS011;22283;42.748;12.732;2024-01-27T17:19:08;39.28;;;27.50;;
36241;SDS011;22283;42.748;12.732;2024-01-27T17:24:09;40.70;;;26.37;;
36241;SDS011;22283;42.748;12.732;2024-01-27T17:29:09;39.50;;;26.80;;
36241;SDS011;22283;42.748;12.732;2024-01-27T17:34:10;36.47;;;25.47;;
36241;SDS011;22283;42.748;12.732;2024-01-27T17:39:11;37.50;;;23.43;;
36241;SDS011;22283;42.748;12.732;2024-01-27T17:44:12;39.97;;;24.33;;
36241;SDS011;22283;42.748;12.732;2024-01-27T17:49:12;36.33;;;24.33;;
36241;SDS011;22283;42.748;12.732;2024-01-27T17:54:13;40.23;;;26.70;;
36241;SDS011;22283;42.748;12.732;2024-01-27T17:59:14;44.17;;;29.20;;
36241;SDS011;22283;42.748;12.732;2024-01-27T18:04:14;46.30;;;28.10;;
36241;SDS011;22283;42.748;12.732;2024-01-27T18:09:15;45.30;;;27.07;;
36241;SDS011;22283;42.748;12.732;2024-01-27T18:14:16;41.63;;;25.20;;
36241;SDS011;22283;42.748;12.732;2024-01-27T18:19:16;50.37;;;30.43;;
36241;SDS011;22283;42.748;12.732;2024-01-27T18:24:17;42.67;;;28.10;;
36241;SDS011;22283;42.748;12.732;2024-01-27T18:29:20;44.07;;;27.17;;
36241;SDS011;22283;42.748;12.732;2024-01-27T18:34:22;37.13;;;25.80;;
36241;SDS011;22283;42.748;12.732;2024-01-27T18:39:23;34.47;;;21.40;;
36241;SDS011;22283;42.748;12.732;2024-01-27T18:44:24;36.30;;;22.27;;
36241;SDS011;22283;42.748;12.732;2024-01-27T18:49:25;29.53;;;19.40;;
36241;SDS011;22283;42.748;12.732;2024-01-27T18:54:25;38.10;;;25.23;;
36241;SDS011;22283;42.748;12.732;2024-01-27T18:59:26;46.33;;;28.37;;
36241;SDS011;22283;42.748;12.732;2024-01-27T19:04:27;49.08;;;26.60;;
36241;SDS011;22283;42.748;12.732;2024-01-27T19:09:28;42.87;;;26.20;;
36241;SDS011;22283;42.748;12.732;2024-01-27T19:14:28;47.80;;;26.97;;
36241;SDS011;22283;42.748;12.732;2024-01-27T19:19:29;44.37;;;26.87;;
36241;SDS011;22283;42.748;12.732;2024-01-27T19:24:30;60.53;;;42.00;;
36241;SDS011;22283;42.748;12.732;2024-01-27T19:29:30;57.73;;;36.47;;
36241;SDS011;22283;42.748;12.732;2024-01-27T19:34:31;36.90;;;24.63;;
36241;SDS011;22283;42.748;12.732;2024-01-27T19:39:32;46.87;;;23.90;;
36241;SDS011;22283;42.748;12.732;2024-01-27T19:44:32;35.40;;;21.30;;
36241;SDS011;22283;42.748;12.732;2024-01-27T19:49:37;36.80;;;19.70;;
36241;SDS011;22283;42.748;12.732;2024-01-27T19:54:38;39.60;;;21.30;;
36241;SDS011;22283;42.748;12.732;2024-01-27T19:59:39;39.57;;;22.97;;
36241;SDS011;22283;42.748;12.732;2024-01-27T20:04:40;37.50;;;21.07;;
36241;SDS011;22283;42.748;12.732;2024-01-27T20:09:46;34.95;;;19.88;;
36241;SDS011;22283;42.748;12.732;2024-01-27T20:14:46;39.70;;;18.77;;
36241;SDS011;22283;42.748;12.732;2024-01-27T20:19:47;29.57;;;17.53;;
36241;SDS011;22283;42.748;12.732;2024-01-27T20:24:53;29.20;;;17.08;;
36241;SDS011;22283;42.748;12.732;2024-01-27T20:29:54;26.47;;;15.53;;
36241;SDS011;22283;42.748;12.732;2024-01-27T20:34:54;31.00;;;17.07;;
36241;SDS011;22283;42.748;12.732;2024-01-27T20:39:55;27.00;;;17.87;;
36241;SDS011;22283;42.748;12.732;2024-01-27T20:44:56;30.53;;;19.90;;
36241;SDS011;22283;42.748;12.732;2024-01-27T20:49:56;31.47;;;20.07;;
36241;SDS011;22283;42.748;12.732;2024-01-27T20:54:58;35.15;;;21.45;;
36241;SDS011;22283;42.748;12.732;2024-01-27T20:59:58;33.20;;;20.33;;
36241;SDS011;22283;42.748;12.732;2024-01-27T21:04:59;33.83;;;19.53;;
36241;SDS011;22283;42.748;12.732;2024-01-27T21:10:00;32.17;;;17.97;;
36241;SDS011;22283;42.748;12.732;2024-01-27T21:15:00;25.90;;;16.67;;
36241;SDS011;22283;42.748;12.732;2024-01-27T21:20:01;30.57;;;16.53;;
36241;SDS011;22283;42.748;12.732;2024-01-27T21:25:03;26.33;;;18.17;;
36241;SDS011;22283;42.748;12.732;2024-01-27T21:30:04;31.70;;;16.10;;
36241;SDS011;22283;42.748;12.732;2024-01-27T21:35:08;27.52;;;16.25;;
36241;SDS011;22283;42.748;12.732;2024-01-27T21:40:10;26.00;;;15.68;;
36241;SDS011;22283;42.748;12.732;2024-01-27T21:45:12;23.88;;;15.25;;
36241;SDS011;22283;42.748;12.732;2024-01-27T21:50:13;24.50;;;13.70;;
36241;SDS011;22283;42.748;12.732;2024-01-27T21:55:15;28.02;;;14.68;;
36241;SDS011;22283;42.748;12.732;2024-01-27T22:00:16;24.45;;;13.25;;
36241;SDS011;22283;42.748;12.732;2024-01-27T22:05:18;22.30;;;13.77;;
36241;SDS011;22283;42.748;12.732;2024-01-27T22:10:19;25.58;;;13.23;;
36241;SDS011;22283;42.748;12.732;2024-01-27T22:15:19;26.70;;;13.90;;
36241;SDS011;22283;42.748;12.732;2024-01-27T22:20:20;24.30;;;13.73;;
36241;SDS011;22283;42.748;12.732;2024-01-27T22:25:21;26.27;;;14.33;;
36241;SDS011;22283;42.748;12.732;2024-01-27T22:30:22;26.10;;;15.03;;
36241;SDS011;22283;42.748;12.732;2024-01-27T22:35:22;24.60;;;13.20;;
36241;SDS011;22283;42.748;12.732;2024-01-27T22:40:23;27.23;;;13.07;;
36241;SDS011;22283;42.748;12.732;2024-01-27T22:45:24;22.17;;;11.63;;
36241;SDS011;22283;42.748;12.732;2024-01-27T22:50:24;21.63;;;12.03;;
36241;SDS011;22283;42.748;12.732;2024-01-27T22:55:25;21.87;;;11.47;;
36241;SDS011;22283;42.748;12.732;2024-01-27T23:00:25;23.90;;;11.67;;
36241;SDS011;22283;42.748;12.732;2024-01-27T23:05:36;17.92;;;10.52;;
36241;SDS011;22283;42.748;12.732;2024-01-27T23:10:37;26.60;;;11.32;;
36241;SDS011;22283;42.748;12.732;2024-01-27T23:15:39;19.02;;;10.07;;
36241;SDS011;22283;42.748;12.732;2024-01-27T23:20:41;18.88;;;10.27;;
36241;SDS011;22283;42.748;12.732;2024-01-27T23:25:42;18.00;;;9.83;;
36241;SDS011;22283;42.748;12.732;2024-01-27T23:30:46;16.42;;;9.95;;
36241;SDS011;22283;42.748;12.732;2024-01-27T23:35:47;17.17;;;9.10;;
36241;SDS011;22283;42.748;12.732;2024-01-27T23:40:48;21.23;;;9.17;;
36241;SDS011;22283;42.748;12.732;2024-01-27T23:45:49;19.17;;;9.57;;
36241;SDS011;22283;42.748;12.732;2024-01-27T23:50:49;13.37;;;9.23;;
36241;SDS011;22283;42.748;12.732;2024-01-27T23:55:52;15.30;;;8.52;;
